sensor_id;sensor_type;location;lat;lon;timestamp;P1;durP1;ratioP1;P2;durP2;ratioP2
6614;SDS011;3343;42.896;23.912;2023-12-29T00:00:47;1.83;;;1.63;;
6614;SDS011;3343;42.896;23.912;2023-12-29T00:03:13;2.50;;;1.80;;
6614;SDS011;3343;42.896;23.912;2023-12-29T00:05:42;1.27;;;1.17;;
6614;SDS011;3343;42.896;23.912;2023-12-29T00:08:09;6.13;;;1.73;;
6614;SDS011;3343;42.896;23.912;2023-12-29T00:10:36;3.20;;;1.77;;
6614;SDS011;3343;42.896;23.912;2023-12-29T00:13:03;2.40;;;1.80;;
6614;SDS011;3343;42.896;23.912;2023-12-29T00:15:30;1.87;;;1.50;;
6614;SDS011;3343;42.896;23.912;2023-12-29T00:17:57;2.00;;;1.80;;
6614;SDS011;3343;42.896;23.912;2023-12-29T00:20:24;1.90;;;1.57;;
6614;SDS011;3343;42.896;23.912;2023-12-29T00:22:52;1.60;;;1.37;;
6614;SDS011;3343;42.896;23.912;2023-12-29T00:25:23;1.47;;;1.20;;
6614;SDS011;3343;42.896;23.912;2023-12-29T00:27:50;2.40;;;1.27;;
6614;SDS011;3343;42.896;23.912;2023-12-29T00:30:17;3.10;;;1.50;;
6614;SDS011;3343;42.896;23.912;2023-12-29T00:32:44;2.03;;;1.50;;
6614;SDS011;3343;42.896;23.912;2023-12-29T00:35:11;2.93;;;1.40;;
6614;SDS011;3343;42.896;23.912;2023-12-29T00:37:38;5.80;;;2.33;;
6614;SDS011;3343;42.896;23.912;2023-12-29T00:40:07;3.00;;;2.10;;
6614;SDS011;3343;42.896;23.912;2023-12-29T00:42:35;3.03;;;1.40;;
6614;SDS011;3343;42.896;23.912;2023-12-29T00:45:02;3.77;;;1.70;;
6614;SDS011;3343;42.896;23.912;2023-12-29T00:47:29;2.03;;;1.50;;
6614;SDS011;3343;42.896;23.912;2023-12-29T00:49:56;3.20;;;1.67;;
6614;SDS011;3343;42.896;23.912;2023-12-29T00:52:22;2.40;;;1.50;;
6614;SDS011;3343;42.896;23.912;2023-12-29T00:54:49;3.87;;;1.83;;
6614;SDS011;3343;42.896;23.912;2023-12-29T00:57:18;3.13;;;2.00;;
6614;SDS011;3343;42.896;23.912;2023-12-29T00:59:46;5.73;;;1.83;;
6614;SDS011;3343;42.896;23.912;2023-12-29T01:02:14;1.17;;;1.07;;
6614;SDS011;3343;42.896;23.912;2023-12-29T01:04:40;1.43;;;1.00;;
6614;SDS011;3343;42.896;23.912;2023-12-29T01:07:07;1.63;;;1.30;;
6614;SDS011;3343;42.896;23.912;2023-12-29T01:09:37;1.23;;;1.07;;
6614;SDS011;3343;42.896;23.912;2023-12-29T01:12:05;1.27;;;1.17;;
6614;SDS011;3343;42.896;23.912;2023-12-29T01:14:33;1.50;;;1.30;;
6614;SDS011;3343;42.896;23.912;2023-12-29T01:17:00;1.53;;;1.33;;
6614;SDS011;3343;42.896;23.912;2023-12-29T01:19:27;2.00;;;1.43;;
6614;SDS011;3343;42.896;23.912;2023-12-29T01:21:54;1.30;;;1.20;;
6614;SDS011;3343;42.896;23.912;2023-12-29T01:24:21;5.40;;;1.67;;
6614;SDS011;3343;42.896;23.912;2023-12-29T01:26:47;2.80;;;1.30;;
6614;SDS011;3343;42.896;23.912;2023-12-29T01:29:14;1.53;;;1.40;;
6614;SDS011;3343;42.896;23.912;2023-12-29T01:31:42;2.50;;;1.60;;
6614;SDS011;3343;42.896;23.912;2023-12-29T01:34:09;1.57;;;1.47;;
6614;SDS011;3343;42.896;23.912;2023-12-29T01:36:36;1.37;;;1.27;;
6614;SDS011;3343;42.896;23.912;2023-12-29T01:39:02;3.10;;;1.80;;
6614;SDS011;3343;42.896;23.912;2023-12-29T01:41:29;1.63;;;1.50;;
6614;SDS011;3343;42.896;23.912;2023-12-29T01:44:14;1.40;;;1.30;;
6614;SDS011;3343;42.896;23.912;2023-12-29T01:46:46;2.20;;;1.40;;
6614;SDS011;3343;42.896;23.912;2023-12-29T01:49:15;6.43;;;2.40;;
6614;SDS011;3343;42.896;23.912;2023-12-29T01:51:43;4.60;;;2.53;;
6614;SDS011;3343;42.896;23.912;2023-12-29T01:54:11;1.93;;;1.50;;
6614;SDS011;3343;42.896;23.912;2023-12-29T01:56:39;2.87;;;1.77;;
6614;SDS011;3343;42.896;23.912;2023-12-29T01:59:07;4.00;;;1.80;;
6614;SDS011;3343;42.896;23.912;2023-12-29T02:01:34;10.73;;;4.87;;
6614;SDS011;3343;42.896;23.912;2023-12-29T02:04:03;4.07;;;2.27;;
6614;SDS011;3343;42.896;23.912;2023-12-29T02:06:31;7.97;;;3.80;;
6614;SDS011;3343;42.896;23.912;2023-12-29T02:09:00;10.97;;;5.40;;
6614;SDS011;3343;42.896;23.912;2023-12-29T02:11:28;4.70;;;3.77;;
6614;SDS011;3343;42.896;23.912;2023-12-29T02:13:56;5.00;;;2.97;;
6614;SDS011;3343;42.896;23.912;2023-12-29T02:16:26;7.60;;;4.43;;
6614;SDS011;3343;42.896;23.912;2023-12-29T02:19:00;1.93;;;1.77;;
6614;SDS011;3343;42.896;23.912;2023-12-29T02:21:35;8.40;;;4.57;;
6614;SDS011;3343;42.896;23.912;2023-12-29T02:24:01;8.90;;;3.70;;
6614;SDS011;3343;42.896;23.912;2023-12-29T02:26:30;3.43;;;2.63;;
6614;SDS011;3343;42.896;23.912;2023-12-29T02:29:01;4.37;;;2.57;;
6614;SDS011;3343;42.896;23.912;2023-12-29T02:31:32;9.43;;;5.53;;
6614;SDS011;3343;42.896;23.912;2023-12-29T02:34:04;14.40;;;5.63;;
6614;SDS011;3343;42.896;23.912;2023-12-29T02:36:33;3.33;;;2.40;;
6614;SDS011;3343;42.896;23.912;2023-12-29T02:39:08;1.83;;;1.50;;
6614;SDS011;3343;42.896;23.912;2023-12-29T02:41:37;2.53;;;2.23;;
6614;SDS011;3343;42.896;23.912;2023-12-29T02:44:04;4.03;;;2.03;;
6614;SDS011;3343;42.896;23.912;2023-12-29T02:46:31;2.43;;;1.67;;
6614;SDS011;3343;42.896;23.912;2023-12-29T02:48:58;1.20;;;1.10;;
6614;SDS011;3343;42.896;23.912;2023-12-29T02:51:25;1.70;;;1.40;;
6614;SDS011;3343;42.896;23.912;2023-12-29T02:53:52;2.80;;;1.70;;
6614;SDS011;3343;42.896;23.912;2023-12-29T02:56:19;2.37;;;1.97;;
6614;SDS011;3343;42.896;23.912;2023-12-29T02:58:48;1.97;;;1.57;;
6614;SDS011;3343;42.896;23.912;2023-12-29T03:01:16;2.17;;;1.57;;
6614;SDS011;3343;42.896;23.912;2023-12-29T03:03:43;11.33;;;5.80;;
6614;SDS011;3343;42.896;23.912;2023-12-29T03:06:10;5.83;;;3.57;;
6614;SDS011;3343;42.896;23.912;2023-12-29T03:08:37;1.87;;;1.77;;
6614;SDS011;3343;42.896;23.912;2023-12-29T03:11:04;2.70;;;1.40;;
6614;SDS011;3343;42.896;23.912;2023-12-29T03:13:31;1.17;;;1.07;;
6614;SDS011;3343;42.896;23.912;2023-12-29T03:15:59;5.03;;;2.03;;
6614;SDS011;3343;42.896;23.912;2023-12-29T03:18:26;3.30;;;2.50;;
6614;SDS011;3343;42.896;23.912;2023-12-29T03:20:53;4.90;;;2.60;;
6614;SDS011;3343;42.896;23.912;2023-12-29T03:23:19;6.00;;;2.77;;
6614;SDS011;3343;42.896;23.912;2023-12-29T03:25:46;6.00;;;1.60;;
6614;SDS011;3343;42.896;23.912;2023-12-29T03:28:13;2.27;;;1.70;;
6614;SDS011;3343;42.896;23.912;2023-12-29T03:30:40;2.20;;;1.53;;
6614;SDS011;3343;42.896;23.912;2023-12-29T03:33:08;4.57;;;1.80;;
6614;SDS011;3343;42.896;23.912;2023-12-29T03:35:35;2.57;;;1.80;;
6614;SDS011;3343;42.896;23.912;2023-12-29T03:38:02;3.03;;;1.73;;
6614;SDS011;3343;42.896;23.912;2023-12-29T03:40:29;3.17;;;1.27;;
6614;SDS011;3343;42.896;23.912;2023-12-29T03:42:57;2.60;;;2.00;;
6614;SDS011;3343;42.896;23.912;2023-12-29T03:45:26;4.53;;;2.07;;
6614;SDS011;3343;42.896;23.912;2023-12-29T03:47:52;2.37;;;2.13;;
6614;SDS011;3343;42.896;23.912;2023-12-29T03:50:21;3.20;;;1.63;;
6614;SDS011;3343;42.896;23.912;2023-12-29T03:52:47;1.73;;;1.60;;
6614;SDS011;3343;42.896;23.912;2023-12-29T03:55:14;2.10;;;1.60;;
6614;SDS011;3343;42.896;23.912;2023-12-29T03:57:41;3.87;;;1.90;;
6614;SDS011;3343;42.896;23.912;2023-12-29T04:00:11;2.67;;;1.90;;
6614;SDS011;3343;42.896;23.912;2023-12-29T04:02:39;1.90;;;1.67;;
6614;SDS011;3343;42.896;23.912;2023-12-29T04:05:06;3.70;;;1.83;;
6614;SDS011;3343;42.896;23.912;2023-12-29T04:07:36;8.67;;;1.67;;
6614;SDS011;3343;42.896;23.912;2023-12-29T04:10:03;1.70;;;1.60;;
6614;SDS011;3343;42.896;23.912;2023-12-29T04:12:30;2.33;;;1.80;;
6614;SDS011;3343;42.896;23.912;2023-12-29T04:14:57;2.23;;;1.67;;
6614;SDS011;3343;42.896;23.912;2023-12-29T04:17:24;1.80;;;1.63;;
6614;SDS011;3343;42.896;23.912;2023-12-29T04:19:51;1.73;;;1.50;;
6614;SDS011;3343;42.896;23.912;2023-12-29T04:22:18;3.33;;;2.30;;
6614;SDS011;3343;42.896;23.912;2023-12-29T04:24:46;1.57;;;1.33;;
6614;SDS011;3343;42.896;23.912;2023-12-29T04:27:13;1.97;;;1.77;;
6614;SDS011;3343;42.896;23.912;2023-12-29T04:29:41;3.40;;;2.10;;
6614;SDS011;3343;42.896;23.912;2023-12-29T04:32:08;2.80;;;1.90;;
6614;SDS011;3343;42.896;23.912;2023-12-29T04:34:34;3.80;;;1.67;;
6614;SDS011;3343;42.896;23.912;2023-12-29T04:37:01;4.37;;;2.40;;
6614;SDS011;3343;42.896;23.912;2023-12-29T04:39:28;8.37;;;3.30;;
6614;SDS011;3343;42.896;23.912;2023-12-29T04:41:57;7.17;;;3.73;;
6614;SDS011;3343;42.896;23.912;2023-12-29T04:44:23;3.67;;;2.03;;
6614;SDS011;3343;42.896;23.912;2023-12-29T04:46:50;5.57;;;1.93;;
6614;SDS011;3343;42.896;23.912;2023-12-29T04:49:17;3.83;;;2.10;;
6614;SDS011;3343;42.896;23.912;2023-12-29T04:51:44;5.57;;;2.57;;
6614;SDS011;3343;42.896;23.912;2023-12-29T04:54:13;2.60;;;1.97;;
6614;SDS011;3343;42.896;23.912;2023-12-29T04:56:40;2.23;;;1.73;;
6614;SDS011;3343;42.896;23.912;2023-12-29T04:59:09;1.70;;;1.60;;
6614;SDS011;3343;42.896;23.912;2023-12-29T05:01:36;3.40;;;2.23;;
6614;SDS011;3343;42.896;23.912;2023-12-29T05:04:02;4.03;;;2.20;;
6614;SDS011;3343;42.896;23.912;2023-12-29T05:06:29;2.07;;;1.77;;
6614;SDS011;3343;42.896;23.912;2023-12-29T05:08:56;3.20;;;2.10;;
6614;SDS011;3343;42.896;23.912;2023-12-29T05:11:24;3.33;;;2.10;;
6614;SDS011;3343;42.896;23.912;2023-12-29T05:13:51;2.63;;;1.80;;
6614;SDS011;3343;42.896;23.912;2023-12-29T05:16:20;2.03;;;1.57;;
6614;SDS011;3343;42.896;23.912;2023-12-29T05:18:47;4.23;;;3.03;;
6614;SDS011;3343;42.896;23.912;2023-12-29T05:21:14;7.97;;;3.40;;
6614;SDS011;3343;42.896;23.912;2023-12-29T05:23:41;7.27;;;2.60;;
6614;SDS011;3343;42.896;23.912;2023-12-29T05:26:08;6.83;;;3.20;;
6614;SDS011;3343;42.896;23.912;2023-12-29T05:28:35;7.07;;;3.30;;
6614;SDS011;3343;42.896;23.912;2023-12-29T05:31:02;6.30;;;3.23;;
6614;SDS011;3343;42.896;23.912;2023-12-29T05:33:31;5.27;;;2.67;;
6614;SDS011;3343;42.896;23.912;2023-12-29T05:35:58;4.37;;;2.30;;
6614;SDS011;3343;42.896;23.912;2023-12-29T05:38:25;3.67;;;2.47;;
6614;SDS011;3343;42.896;23.912;2023-12-29T05:40:52;3.83;;;2.47;;
6614;SDS011;3343;42.896;23.912;2023-12-29T05:43:19;3.13;;;1.90;;
6614;SDS011;3343;42.896;23.912;2023-12-29T05:45:45;21.07;;;5.37;;
6614;SDS011;3343;42.896;23.912;2023-12-29T05:48:12;12.30;;;5.57;;
6614;SDS011;3343;42.896;23.912;2023-12-29T05:50:41;16.47;;;6.77;;
6614;SDS011;3343;42.896;23.912;2023-12-29T05:53:08;10.63;;;5.70;;
6614;SDS011;3343;42.896;23.912;2023-12-29T05:55:34;15.60;;;6.80;;
6614;SDS011;3343;42.896;23.912;2023-12-29T05:58:01;9.87;;;5.73;;
6614;SDS011;3343;42.896;23.912;2023-12-29T06:00:28;10.37;;;5.60;;
6614;SDS011;3343;42.896;23.912;2023-12-29T06:02:56;21.27;;;6.10;;
6614;SDS011;3343;42.896;23.912;2023-12-29T06:05:22;6.03;;;3.77;;
6614;SDS011;3343;42.896;23.912;2023-12-29T06:07:51;5.73;;;2.80;;
6614;SDS011;3343;42.896;23.912;2023-12-29T06:10:18;3.80;;;2.60;;
6614;SDS011;3343;42.896;23.912;2023-12-29T06:12:44;4.53;;;3.67;;
6614;SDS011;3343;42.896;23.912;2023-12-29T06:15:12;8.37;;;4.30;;
6614;SDS011;3343;42.896;23.912;2023-12-29T06:17:39;13.87;;;5.57;;
6614;SDS011;3343;42.896;23.912;2023-12-29T06:20:07;4.80;;;3.17;;
6614;SDS011;3343;42.896;23.912;2023-12-29T06:22:38;3.90;;;2.93;;
6614;SDS011;3343;42.896;23.912;2023-12-29T06:25:09;7.63;;;4.03;;
6614;SDS011;3343;42.896;23.912;2023-12-29T06:27:37;13.27;;;7.40;;
6614;SDS011;3343;42.896;23.912;2023-12-29T06:30:04;11.50;;;5.40;;
6614;SDS011;3343;42.896;23.912;2023-12-29T06:32:32;5.50;;;3.30;;
6614;SDS011;3343;42.896;23.912;2023-12-29T06:34:59;6.50;;;3.87;;
6614;SDS011;3343;42.896;23.912;2023-12-29T06:37:26;4.27;;;2.40;;
6614;SDS011;3343;42.896;23.912;2023-12-29T06:39:53;7.00;;;3.43;;
6614;SDS011;3343;42.896;23.912;2023-12-29T06:42:21;14.33;;;6.37;;
6614;SDS011;3343;42.896;23.912;2023-12-29T06:44:48;10.00;;;4.80;;
6614;SDS011;3343;42.896;23.912;2023-12-29T06:47:15;5.33;;;3.50;;
6614;SDS011;3343;42.896;23.912;2023-12-29T06:49:42;6.07;;;3.53;;
6614;SDS011;3343;42.896;23.912;2023-12-29T06:52:09;6.90;;;3.70;;
6614;SDS011;3343;42.896;23.912;2023-12-29T06:54:36;9.10;;;5.03;;
6614;SDS011;3343;42.896;23.912;2023-12-29T06:57:03;7.47;;;4.27;;
6614;SDS011;3343;42.896;23.912;2023-12-29T06:59:32;5.87;;;2.93;;
6614;SDS011;3343;42.896;23.912;2023-12-29T07:01:59;5.27;;;3.07;;
6614;SDS011;3343;42.896;23.912;2023-12-29T07:04:26;7.67;;;3.70;;
6614;SDS011;3343;42.896;23.912;2023-12-29T07:06:53;12.43;;;6.33;;
6614;SDS011;3343;42.896;23.912;2023-12-29T07:09:19;33.93;;;15.77;;
6614;SDS011;3343;42.896;23.912;2023-12-29T07:11:47;23.43;;;10.23;;
6614;SDS011;3343;42.896;23.912;2023-12-29T07:14:16;23.30;;;8.53;;
6614;SDS011;3343;42.896;23.912;2023-12-29T07:16:44;17.13;;;8.27;;
6614;SDS011;3343;42.896;23.912;2023-12-29T07:19:12;15.83;;;6.07;;
6614;SDS011;3343;42.896;23.912;2023-12-29T07:21:39;12.90;;;5.70;;
6614;SDS011;3343;42.896;23.912;2023-12-29T07:24:06;10.90;;;6.07;;
6614;SDS011;3343;42.896;23.912;2023-12-29T07:26:34;21.83;;;10.57;;
6614;SDS011;3343;42.896;23.912;2023-12-29T07:29:01;25.33;;;12.97;;
6614;SDS011;3343;42.896;23.912;2023-12-29T07:31:27;17.13;;;10.27;;
6614;SDS011;3343;42.896;23.912;2023-12-29T07:33:56;20.07;;;10.90;;
6614;SDS011;3343;42.896;23.912;2023-12-29T07:36:23;20.70;;;9.83;;
6614;SDS011;3343;42.896;23.912;2023-12-29T07:38:50;16.30;;;8.20;;
6614;SDS011;3343;42.896;23.912;2023-12-29T07:41:17;8.13;;;4.60;;
6614;SDS011;3343;42.896;23.912;2023-12-29T07:43:44;75.27;;;30.40;;
6614;SDS011;3343;42.896;23.912;2023-12-29T07:46:11;52.87;;;25.27;;
6614;SDS011;3343;42.896;23.912;2023-12-29T07:48:38;24.10;;;12.17;;
6614;SDS011;3343;42.896;23.912;2023-12-29T07:51:08;19.53;;;9.90;;
6614;SDS011;3343;42.896;23.912;2023-12-29T07:53:35;22.50;;;11.47;;
6614;SDS011;3343;42.896;23.912;2023-12-29T07:56:02;17.63;;;9.83;;
6614;SDS011;3343;42.896;23.912;2023-12-29T07:58:29;10.90;;;5.17;;
6614;SDS011;3343;42.896;23.912;2023-12-29T08:00:56;9.23;;;4.23;;
6614;SDS011;3343;42.896;23.912;2023-12-29T08:03:23;7.70;;;4.20;;
6614;SDS011;3343;42.896;23.912;2023-12-29T08:05:50;9.27;;;4.33;;
6614;SDS011;3343;42.896;23.912;2023-12-29T08:08:18;6.50;;;4.27;;
6614;SDS011;3343;42.896;23.912;2023-12-29T08:10:45;7.33;;;4.30;;
6614;SDS011;3343;42.896;23.912;2023-12-29T08:13:11;9.83;;;4.83;;
6614;SDS011;3343;42.896;23.912;2023-12-29T08:15:38;7.03;;;4.60;;
6614;SDS011;3343;42.896;23.912;2023-12-29T08:18:05;5.67;;;4.77;;
6614;SDS011;3343;42.896;23.912;2023-12-29T08:20:32;7.03;;;4.23;;
6614;SDS011;3343;42.896;23.912;2023-12-29T08:22:59;6.90;;;4.00;;
6614;SDS011;3343;42.896;23.912;2023-12-29T08:25:29;7.27;;;3.50;;
6614;SDS011;3343;42.896;23.912;2023-12-29T08:27:56;10.50;;;4.57;;
6614;SDS011;3343;42.896;23.912;2023-12-29T08:30:23;6.80;;;4.77;;
6614;SDS011;3343;42.896;23.912;2023-12-29T08:32:50;7.00;;;4.50;;
6614;SDS011;3343;42.896;23.912;2023-12-29T08:35:17;6.37;;;3.27;;
6614;SDS011;3343;42.896;23.912;2023-12-29T08:37:43;4.77;;;2.80;;
6614;SDS011;3343;42.896;23.912;2023-12-29T08:40:10;3.87;;;2.43;;
6614;SDS011;3343;42.896;23.912;2023-12-29T08:42:39;3.13;;;2.77;;
6614;SDS011;3343;42.896;23.912;2023-12-29T08:45:06;3.97;;;2.57;;
6614;SDS011;3343;42.896;23.912;2023-12-29T08:47:34;7.03;;;3.70;;
6614;SDS011;3343;42.896;23.912;2023-12-29T08:50:00;7.00;;;3.80;;
6614;SDS011;3343;42.896;23.912;2023-12-29T08:52:29;8.23;;;3.37;;
6614;SDS011;3343;42.896;23.912;2023-12-29T08:54:56;5.50;;;3.33;;
6614;SDS011;3343;42.896;23.912;2023-12-29T08:57:23;6.07;;;3.27;;
6614;SDS011;3343;42.896;23.912;2023-12-29T08:59:51;7.87;;;2.50;;
6614;SDS011;3343;42.896;23.912;2023-12-29T09:02:19;3.17;;;2.40;;
6614;SDS011;3343;42.896;23.912;2023-12-29T09:04:46;3.43;;;2.07;;
6614;SDS011;3343;42.896;23.912;2023-12-29T09:07:12;8.43;;;2.67;;
6614;SDS011;3343;42.896;23.912;2023-12-29T09:09:39;4.37;;;2.07;;
6614;SDS011;3343;42.896;23.912;2023-12-29T09:12:06;7.30;;;3.80;;
6614;SDS011;3343;42.896;23.912;2023-12-29T09:14:33;6.07;;;3.53;;
6614;SDS011;3343;42.896;23.912;2023-12-29T09:17:01;4.63;;;2.43;;
6614;SDS011;3343;42.896;23.912;2023-12-29T09:19:28;3.97;;;2.33;;
6614;SDS011;3343;42.896;23.912;2023-12-29T09:21:55;6.07;;;3.03;;
6614;SDS011;3343;42.896;23.912;2023-12-29T09:24:22;5.67;;;3.10;;
6614;SDS011;3343;42.896;23.912;2023-12-29T09:26:49;7.10;;;3.97;;
6614;SDS011;3343;42.896;23.912;2023-12-29T09:29:16;8.37;;;4.33;;
6614;SDS011;3343;42.896;23.912;2023-12-29T09:31:43;5.20;;;3.93;;
6614;SDS011;3343;42.896;23.912;2023-12-29T09:34:11;6.93;;;4.23;;
6614;SDS011;3343;42.896;23.912;2023-12-29T09:36:38;10.40;;;4.90;;
6614;SDS011;3343;42.896;23.912;2023-12-29T09:39:05;9.77;;;5.10;;
6614;SDS011;3343;42.896;23.912;2023-12-29T09:41:32;8.23;;;4.90;;
6614;SDS011;3343;42.896;23.912;2023-12-29T09:44:01;9.33;;;5.23;;
6614;SDS011;3343;42.896;23.912;2023-12-29T09:46:33;8.23;;;4.70;;
6614;SDS011;3343;42.896;23.912;2023-12-29T09:49:02;9.23;;;5.07;;
6614;SDS011;3343;42.896;23.912;2023-12-29T09:51:31;9.53;;;5.50;;
6614;SDS011;3343;42.896;23.912;2023-12-29T09:53:59;8.17;;;5.37;;
6614;SDS011;3343;42.896;23.912;2023-12-29T09:56:26;5.33;;;3.70;;
6614;SDS011;3343;42.896;23.912;2023-12-29T09:58:53;6.80;;;3.93;;
6614;SDS011;3343;42.896;23.912;2023-12-29T10:01:21;6.80;;;3.50;;
6614;SDS011;3343;42.896;23.912;2023-12-29T10:03:48;4.00;;;2.77;;
6614;SDS011;3343;42.896;23.912;2023-12-29T10:06:15;2.60;;;2.00;;
6614;SDS011;3343;42.896;23.912;2023-12-29T10:08:49;4.93;;;2.30;;
6614;SDS011;3343;42.896;23.912;2023-12-29T10:11:16;3.13;;;1.70;;
6614;SDS011;3343;42.896;23.912;2023-12-29T10:13:46;2.37;;;2.00;;
6614;SDS011;3343;42.896;23.912;2023-12-29T10:16:18;2.53;;;2.20;;
6614;SDS011;3343;42.896;23.912;2023-12-29T10:18:53;3.63;;;2.20;;
6614;SDS011;3343;42.896;23.912;2023-12-29T10:21:28;4.50;;;2.67;;
6614;SDS011;3343;42.896;23.912;2023-12-29T10:24:12;3.77;;;2.70;;
6614;SDS011;3343;42.896;23.912;2023-12-29T10:26:44;2.87;;;2.10;;
6614;SDS011;3343;42.896;23.912;2023-12-29T10:29:11;3.63;;;2.27;;
6614;SDS011;3343;42.896;23.912;2023-12-29T10:31:38;5.37;;;2.07;;
6614;SDS011;3343;42.896;23.912;2023-12-29T10:34:18;5.33;;;2.40;;
6614;SDS011;3343;42.896;23.912;2023-12-29T10:36:53;2.90;;;2.50;;
6614;SDS011;3343;42.896;23.912;2023-12-29T10:39:22;5.10;;;2.50;;
6614;SDS011;3343;42.896;23.912;2023-12-29T10:41:49;3.63;;;2.67;;
6614;SDS011;3343;42.896;23.912;2023-12-29T10:44:16;4.57;;;3.07;;
6614;SDS011;3343;42.896;23.912;2023-12-29T10:46:43;5.73;;;3.27;;
6614;SDS011;3343;42.896;23.912;2023-12-29T10:49:10;6.77;;;3.60;;
6614;SDS011;3343;42.896;23.912;2023-12-29T10:51:38;7.20;;;3.63;;
6614;SDS011;3343;42.896;23.912;2023-12-29T10:54:05;4.57;;;3.13;;
6614;SDS011;3343;42.896;23.912;2023-12-29T10:56:34;6.07;;;3.33;;
6614;SDS011;3343;42.896;23.912;2023-12-29T10:59:01;3.87;;;2.70;;
6614;SDS011;3343;42.896;23.912;2023-12-29T11:01:29;4.80;;;2.70;;
6614;SDS011;3343;42.896;23.912;2023-12-29T11:03:59;6.73;;;3.60;;
6614;SDS011;3343;42.896;23.912;2023-12-29T11:06:27;3.63;;;2.70;;
6614;SDS011;3343;42.896;23.912;2023-12-29T11:08:55;6.03;;;3.03;;
6614;SDS011;3343;42.896;23.912;2023-12-29T11:11:22;6.70;;;3.13;;
6614;SDS011;3343;42.896;23.912;2023-12-29T11:13:51;7.90;;;3.03;;
6614;SDS011;3343;42.896;23.912;2023-12-29T11:16:20;4.47;;;3.03;;
6614;SDS011;3343;42.896;23.912;2023-12-29T11:18:49;6.43;;;3.00;;
6614;SDS011;3343;42.896;23.912;2023-12-29T11:21:18;8.27;;;3.10;;
6614;SDS011;3343;42.896;23.912;2023-12-29T11:23:46;3.77;;;2.77;;
6614;SDS011;3343;42.896;23.912;2023-12-29T11:26:14;3.97;;;3.13;;
6614;SDS011;3343;42.896;23.912;2023-12-29T11:28:42;7.67;;;3.57;;
6614;SDS011;3343;42.896;23.912;2023-12-29T11:31:11;6.43;;;3.23;;
6614;SDS011;3343;42.896;23.912;2023-12-29T11:33:40;8.57;;;3.00;;
6614;SDS011;3343;42.896;23.912;2023-12-29T11:36:12;7.10;;;3.30;;
6614;SDS011;3343;42.896;23.912;2023-12-29T11:38:45;6.00;;;3.00;;
6614;SDS011;3343;42.896;23.912;2023-12-29T11:41:21;8.70;;;3.10;;
6614;SDS011;3343;42.896;23.912;2023-12-29T11:43:56;4.63;;;2.60;;
6614;SDS011;3343;42.896;23.912;2023-12-29T11:46:34;6.27;;;3.13;;
6614;SDS011;3343;42.896;23.912;2023-12-29T11:49:01;3.23;;;2.70;;
6614;SDS011;3343;42.896;23.912;2023-12-29T11:51:30;5.13;;;2.70;;
6614;SDS011;3343;42.896;23.912;2023-12-29T11:53:58;5.00;;;3.17;;
6614;SDS011;3343;42.896;23.912;2023-12-29T11:56:30;5.60;;;3.23;;
6614;SDS011;3343;42.896;23.912;2023-12-29T11:59:11;10.63;;;3.60;;
6614;SDS011;3343;42.896;23.912;2023-12-29T12:01:43;5.87;;;3.80;;
6614;SDS011;3343;42.896;23.912;2023-12-29T12:07:06;6.63;;;3.83;;
6614;SDS011;3343;42.896;23.912;2023-12-29T12:09:34;5.27;;;3.40;;
6614;SDS011;3343;42.896;23.912;2023-12-29T12:12:02;4.77;;;3.10;;
6614;SDS011;3343;42.896;23.912;2023-12-29T12:14:43;4.40;;;3.00;;
6614;SDS011;3343;42.896;23.912;2023-12-29T12:17:33;9.03;;;3.73;;
6614;SDS011;3343;42.896;23.912;2023-12-29T12:20:02;4.57;;;3.20;;
6614;SDS011;3343;42.896;23.912;2023-12-29T12:22:33;12.00;;;3.40;;
6614;SDS011;3343;42.896;23.912;2023-12-29T12:25:02;6.70;;;2.67;;
6614;SDS011;3343;42.896;23.912;2023-12-29T12:27:30;7.20;;;3.17;;
6614;SDS011;3343;42.896;23.912;2023-12-29T12:29:58;5.10;;;3.10;;
6614;SDS011;3343;42.896;23.912;2023-12-29T12:32:25;5.10;;;3.13;;
6614;SDS011;3343;42.896;23.912;2023-12-29T12:34:54;4.33;;;2.93;;
6614;SDS011;3343;42.896;23.912;2023-12-29T12:37:22;6.83;;;3.37;;
6614;SDS011;3343;42.896;23.912;2023-12-29T12:39:50;7.20;;;3.10;;
6614;SDS011;3343;42.896;23.912;2023-12-29T12:42:18;3.70;;;2.90;;
6614;SDS011;3343;42.896;23.912;2023-12-29T12:44:47;4.87;;;2.60;;
6614;SDS011;3343;42.896;23.912;2023-12-29T12:47:23;4.40;;;3.27;;
6614;SDS011;3343;42.896;23.912;2023-12-29T12:49:54;9.00;;;3.30;;
6614;SDS011;3343;42.896;23.912;2023-12-29T12:52:21;8.80;;;3.67;;
6614;SDS011;3343;42.896;23.912;2023-12-29T12:54:48;6.13;;;3.80;;
6614;SDS011;3343;42.896;23.912;2023-12-29T12:57:19;6.77;;;3.80;;
6614;SDS011;3343;42.896;23.912;2023-12-29T12:59:47;7.20;;;2.87;;
6614;SDS011;3343;42.896;23.912;2023-12-29T13:02:15;6.57;;;4.10;;
6614;SDS011;3343;42.896;23.912;2023-12-29T13:04:45;7.10;;;3.27;;
6614;SDS011;3343;42.896;23.912;2023-12-29T13:07:16;4.07;;;2.67;;
6614;SDS011;3343;42.896;23.912;2023-12-29T13:09:43;6.60;;;3.30;;
6614;SDS011;3343;42.896;23.912;2023-12-29T13:12:12;9.70;;;3.30;;
6614;SDS011;3343;42.896;23.912;2023-12-29T13:14:41;3.93;;;2.73;;
6614;SDS011;3343;42.896;23.912;2023-12-29T13:17:08;5.40;;;3.13;;
6614;SDS011;3343;42.896;23.912;2023-12-29T13:19:36;7.60;;;4.77;;
6614;SDS011;3343;42.896;23.912;2023-12-29T13:22:05;6.73;;;3.40;;
6614;SDS011;3343;42.896;23.912;2023-12-29T13:24:34;6.83;;;2.83;;
6614;SDS011;3343;42.896;23.912;2023-12-29T13:27:02;5.43;;;3.13;;
6614;SDS011;3343;42.896;23.912;2023-12-29T13:29:32;4.97;;;3.20;;
6614;SDS011;3343;42.896;23.912;2023-12-29T13:32:01;5.17;;;2.60;;
6614;SDS011;3343;42.896;23.912;2023-12-29T13:34:33;3.63;;;2.73;;
6614;SDS011;3343;42.896;23.912;2023-12-29T13:37:09;2.93;;;2.40;;
6614;SDS011;3343;42.896;23.912;2023-12-29T13:39:49;4.37;;;2.50;;
6614;SDS011;3343;42.896;23.912;2023-12-29T13:42:20;3.30;;;2.47;;
6614;SDS011;3343;42.896;23.912;2023-12-29T13:44:50;5.17;;;3.40;;
6614;SDS011;3343;42.896;23.912;2023-12-29T13:47:20;2.93;;;2.07;;
6614;SDS011;3343;42.896;23.912;2023-12-29T13:49:47;4.67;;;2.50;;
6614;SDS011;3343;42.896;23.912;2023-12-29T13:52:16;4.90;;;2.90;;
6614;SDS011;3343;42.896;23.912;2023-12-29T13:54:44;7.97;;;3.37;;
6614;SDS011;3343;42.896;23.912;2023-12-29T13:57:12;6.80;;;4.00;;
6614;SDS011;3343;42.896;23.912;2023-12-29T13:59:39;11.77;;;6.70;;
6614;SDS011;3343;42.896;23.912;2023-12-29T14:02:18;14.13;;;5.83;;
6614;SDS011;3343;42.896;23.912;2023-12-29T14:05:05;3.60;;;2.17;;
6614;SDS011;3343;42.896;23.912;2023-12-29T14:07:37;3.90;;;2.07;;
6614;SDS011;3343;42.896;23.912;2023-12-29T14:10:12;6.10;;;2.50;;
6614;SDS011;3343;42.896;23.912;2023-12-29T14:12:40;4.03;;;2.57;;
6614;SDS011;3343;42.896;23.912;2023-12-29T14:15:08;7.23;;;2.43;;
6614;SDS011;3343;42.896;23.912;2023-12-29T14:17:35;6.63;;;4.20;;
6614;SDS011;3343;42.896;23.912;2023-12-29T14:20:04;13.47;;;8.00;;
6614;SDS011;3343;42.896;23.912;2023-12-29T14:22:33;25.40;;;13.83;;
6614;SDS011;3343;42.896;23.912;2023-12-29T14:27:29;3.07;;;2.13;;
6614;SDS011;3343;42.896;23.912;2023-12-29T14:29:57;2.57;;;1.80;;
6614;SDS011;3343;42.896;23.912;2023-12-29T14:32:24;4.67;;;2.77;;
6614;SDS011;3343;42.896;23.912;2023-12-29T14:34:54;3.83;;;2.50;;
6614;SDS011;3343;42.896;23.912;2023-12-29T14:37:23;5.53;;;2.90;;
6614;SDS011;3343;42.896;23.912;2023-12-29T14:39:51;5.80;;;2.70;;
6614;SDS011;3343;42.896;23.912;2023-12-29T14:42:18;3.33;;;2.17;;
6614;SDS011;3343;42.896;23.912;2023-12-29T14:44:45;3.60;;;2.33;;
6614;SDS011;3343;42.896;23.912;2023-12-29T14:47:14;5.10;;;2.73;;
6614;SDS011;3343;42.896;23.912;2023-12-29T14:49:42;3.73;;;2.37;;
6614;SDS011;3343;42.896;23.912;2023-12-29T14:52:10;4.90;;;2.73;;
6614;SDS011;3343;42.896;23.912;2023-12-29T14:54:37;5.03;;;2.50;;
6614;SDS011;3343;42.896;23.912;2023-12-29T14:57:05;4.23;;;2.60;;
6614;SDS011;3343;42.896;23.912;2023-12-29T14:59:32;3.97;;;2.23;;
6614;SDS011;3343;42.896;23.912;2023-12-29T15:01:58;5.93;;;3.27;;
6614;SDS011;3343;42.896;23.912;2023-12-29T15:04:28;6.90;;;2.77;;
6614;SDS011;3343;42.896;23.912;2023-12-29T15:06:57;9.87;;;5.97;;
6614;SDS011;3343;42.896;23.912;2023-12-29T15:09:24;22.97;;;9.63;;
6614;SDS011;3343;42.896;23.912;2023-12-29T15:11:51;5.73;;;3.60;;